Time;durP1;ratioP1;P1;durP2;ratioP2;P2;SDS_P1;SDS_P2;PMS_P1;PMS_P2;Temp;Humidity;BMP_temperature;BMP_pressure;BME280_temperature;BME280_humidity;BME280_pressure;Samples;Min_cycle;Max_cycle;Signal;HPM_P1;HPM_P2
2022/05/10 00:00:57;;;;;;;3.15;1.65;;;15.60;99.90;;;;;;5104729;28;19904;-91
2022/05/10 00:03:43;;;;;;;4.32;1.60;;;15.50;99.90;;;;;;5096340;28;20043;-90
2022/05/10 00:06:09;;;;;;;2.60;1.17;;;15.50;99.90;;;;;;5096405;28;20036;-90
2022/05/10 00:08:36;;;;;;;;;;;15.40;99.90;;;;;;5097117;28;20026;-90
2022/05/10 00:11:02;;;;;;;3.78;1.45;;;15.50;99.90;;;;;;5103442;28;20356;-91
2022/05/10 00:13:27;;;;;;;;;;;15.40;99.90;;;;;;5096618;28;20064;-89
2022/05/10 00:15:53;;;;;;;6.55;1.58;;;15.40;99.90;;;;;;5096573;28;19904;-89
2022/05/10 00:18:20;;;;;;;;;;;15.40;99.90;;;;;;5096518;28;20257;-90
2022/05/10 00:20:47;;;;;;;;;;;15.40;99.90;;;;;;5096581;28;19949;-90
2022/05/10 00:23:13;;;;;;;5.90;1.97;;;15.40;99.90;;;;;;5095622;28;19951;-90
2022/05/10 00:25:39;;;;;;;4.25;1.55;;;15.40;99.90;;;;;;5095929;28;20088;-91
2022/05/10 00:28:05;;;;;;;;;;;15.40;99.90;;;;;;5097044;28;20422;-91
2022/05/10 00:30:31;;;;;;;8.05;1.48;;;15.40;99.90;;;;;;5096212;28;19912;-90
2022/05/10 00:32:57;;;;;;;2.63;1.42;;;15.40;99.90;;;;;;5095972;28;20055;-91
2022/05/10 00:35:27;;;;;;;5.55;1.80;;;15.40;99.90;;;;;;5095374;28;20408;-91
2022/05/10 00:37:57;;;;;;;5.80;1.55;;;15.40;99.90;;;;;;5096047;28;20031;-91
2022/05/10 00:40:25;;;;;;;6.30;1.48;;;15.40;99.90;;;;;;5096163;28;20027;-90
2022/05/10 00:43:00;;;;;;;5.57;1.17;;;15.40;99.90;;;;;;5096100;28;20034;-90
2022/05/10 00:45:49;;;;;;;9.80;1.50;;;15.40;99.90;;;;;;5113636;28;20028;-90
2022/05/10 00:48:33;;;;;;;5.82;1.50;;;15.30;99.90;;;;;;5084385;28;20092;-91
2022/05/10 00:51:08;;;;;;;4.38;1.50;;;15.30;99.90;;;;;;5095370;28;20495;-91
2022/05/10 00:54:04;;;;;;;4.32;1.33;;;15.30;99.90;;;;;;5117254;28;20094;-89
2022/05/10 00:56:44;;;;;;;5.50;1.45;;;15.30;99.90;;;;;;5095272;28;20484;-90
2022/05/10 00:59:23;;;;;;;4.68;1.75;;;15.30;99.90;;;;;;5095797;28;20031;-91
2022/05/10 01:01:55;;;;;;;6.03;1.80;;;15.30;99.90;;;;;;5095570;28;20077;-88
2022/05/10 01:04:39;;;;;;;2.22;0.90;;;15.30;99.90;;;;;;5095429;28;20043;-87
2022/05/10 01:07:15;;;;;;;3.20;1.02;;;15.30;99.90;;;;;;5095443;28;20470;-89
2022/05/10 01:09:46;;;;;;;3.50;1.70;;;15.10;99.90;;;;;;5095153;28;20120;-91
2022/05/10 01:12:20;;;;;;;6.25;1.60;;;15.10;99.90;;;;;;5095455;28;20059;-91
2022/05/10 01:15:06;;;;;;;2.70;1.27;;;15.00;99.90;;;;;;5095407;28;20035;-91
2022/05/10 01:17:33;;;;;;;3.07;1.60;;;14.90;99.90;;;;;;5097638;28;20050;-91
2022/05/10 01:19:59;;;;;;;3.22;1.73;;;14.80;99.90;;;;;;5099074;28;20019;-91
2022/05/10 01:22:29;;;;;;;;;;;14.70;99.90;;;;;;5101554;28;20024;-91
2022/05/10 01:25:15;;;;;;;3.78;1.65;;;14.60;99.90;;;;;;5099935;28;19911;-90
2022/05/10 01:27:48;;;;;;;6.18;1.17;;;14.60;99.90;;;;;;5095529;28;20522;-91
2022/05/10 01:30:21;;;;;;;3.30;1.38;;;14.60;99.90;;;;;;5095920;28;20038;-91
2022/05/10 01:35:58;;;;;;;3.22;1.40;;;14.50;99.90;;;;;;5113788;28;20034;-91
2022/05/10 01:38:43;;;;;;;6.43;1.23;;;14.60;99.90;;;;;;5095281;28;20031;-91
2022/05/10 01:41:20;;;;;;;4.80;1.67;;;14.50;99.90;;;;;;5095636;28;20028;-91
2022/05/10 01:44:02;;;;;;;5.53;1.33;;;14.50;99.90;;;;;;5095800;28;20070;-91
2022/05/10 01:46:31;;;;;;;3.97;1.48;;;14.50;99.90;;;;;;5095448;28;20028;-90
2022/05/10 01:49:15;;;;;;;4.88;1.52;;;14.50;99.90;;;;;;5094428;28;20023;-91
2022/05/10 01:51:51;;;;;;;6.28;1.77;;;14.50;99.90;;;;;;5093992;28;20031;-90
2022/05/10 01:54:37;;;;;;;2.58;1.20;;;14.60;99.90;;;;;;5094617;28;20028;-90
2022/05/10 01:57:03;;;;;;;5.85;1.17;;;14.60;99.90;;;;;;5094989;28;20522;-91
2022/05/10 01:59:29;;;;;;;2.88;1.38;;;14.60;99.90;;;;;;5094174;28;20338;-92
2022/05/10 02:01:56;;;;;;;;;;;14.70;99.90;;;;;;5103678;28;20500;-92
2022/05/10 02:04:28;;;;;;;4.28;1.58;;;14.70;99.90;;;;;;5095470;28;19921;-91
2022/05/10 02:07:07;;;;;;;5.15;1.40;;;14.80;99.90;;;;;;5094523;28;20076;-91
2022/05/10 02:09:45;;;;;;;4.18;1.10;;;14.90;99.90;;;;;;5094187;28;20059;-92
2022/05/10 02:12:20;;;;;;;3.60;1.30;;;14.90;99.90;;;;;;5094443;28;20453;-91
2022/05/10 02:14:51;;;;;;;2.33;1.20;;;15.00;99.90;;;;;;5094074;28;20034;-90
2022/05/10 02:17:24;;;;;;;2.95;1.30;;;15.10;99.90;;;;;;5094000;28;20027;-90
2022/05/10 02:20:00;;;;;;;5.45;1.77;;;15.10;99.90;;;;;;5094395;28;20026;-90
2022/05/10 02:22:33;;;;;;;3.47;1.58;;;15.00;99.90;;;;;;5095867;28;20077;-89
2022/05/10 02:25:05;;;;;;;5.32;1.33;;;15.00;99.90;;;;;;5094020;28;20104;-91
2022/05/10 02:27:37;;;;;;;4.03;1.30;;;15.10;99.90;;;;;;5092649;28;20027;-90
2022/05/10 02:30:19;;;;;;;2.28;0.93;;;15.00;99.90;;;;;;5113151;28;20069;-91
2022/05/10 02:33:08;;;;;;;3.75;1.40;;;15.00;99.90;;;;;;5094199;28;20575;-93
2022/05/10 02:35:46;;;;;;;2.00;0.98;;;15.00;99.90;;;;;;5093587;28;20040;-93
2022/05/10 02:38:14;;;;;;;6.88;1.67;;;15.00;99.90;;;;;;5094393;28;20019;-93
2022/05/10 02:40:43;;;;;;;3.50;1.20;;;15.00;99.90;;;;;;5110613;28;20026;-92
2022/05/10 02:43:17;;;;;;;2.65;1.30;;;14.90;99.90;;;;;;5094222;28;20039;-89
2022/05/10 02:45:43;;;;;;;2.85;1.35;;;14.90;99.90;;;;;;5092943;28;20034;-90
2022/05/10 02:48:31;;;;;;;5.90;1.75;;;14.80;99.90;;;;;;5096096;28;20172;-90
2022/05/10 02:50:57;;;;;;;3.47;1.25;;;14.80;99.90;;;;;;5093598;28;20028;-90
2022/05/10 02:53:24;;;;;;;3.60;1.42;;;14.70;99.90;;;;;;5093272;28;20458;-91
2022/05/10 02:56:02;;;;;;;4.03;1.35;;;14.70;99.90;;;;;;5111904;28;20039;-90
2022/05/10 02:58:47;;;;;;;6.57;1.58;;;14.70;99.90;;;;;;5093368;28;20465;-90
2022/05/10 03:01:15;;;;;;;1.88;0.93;;;14.70;99.90;;;;;;5094498;28;20051;-91
2022/05/10 03:03:41;;;;;;;4.13;1.38;;;14.70;99.90;;;;;;5074889;28;20519;-90
2022/05/10 03:06:07;;;;;;;2.78;1.15;;;14.70;99.90;;;;;;5069941;28;20033;-90
2022/05/10 03:08:33;;;;;;;2.10;1.02;;;14.70;99.90;;;;;;5069568;28;20024;-91
2022/05/10 03:10:59;;;;;;;;;;;14.70;99.90;;;;;;5070267;28;20119;-90
2022/05/10 03:13:25;;;;;;;3.25;1.20;;;14.70;99.90;;;;;;5069318;28;19911;-90
2022/05/10 03:15:50;;;;;;;6.38;1.60;;;14.70;99.90;;;;;;5069298;28;20025;-91
2022/05/10 03:18:16;;;;;;;5.47;1.42;;;14.70;99.90;;;;;;5069555;28;20095;-90
2022/05/10 03:20:42;;;;;;;;;;;14.70;99.90;;;;;;5070164;28;20052;-90
2022/05/10 03:23:07;;;;;;;2.92;1.25;;;14.70;99.90;;;;;;5069373;28;20046;-90
2022/05/10 03:25:33;;;;;;;3.63;0.98;;;14.70;99.90;;;;;;5069503;28;20032;-91
2022/05/10 03:27:59;;;;;;;;;;;14.70;99.90;;;;;;5069957;28;20035;-89
2022/05/10 03:30:27;;;;;;;6.93;1.40;;;14.70;99.90;;;;;;5069393;28;19912;-90
2022/05/10 03:32:53;;;;;;;5.00;1.55;;;14.80;99.90;;;;;;5069667;28;20032;-90
2022/05/10 03:35:20;;;;;;;2.72;1.20;;;14.80;99.90;;;;;;5069162;28;20020;-89
2022/05/10 03:37:46;;;;;;;4.03;1.10;;;14.90;99.90;;;;;;5069401;28;20390;-89
2022/05/10 03:40:15;;;;;;;;;;;15.00;99.90;;;;;;5085241;28;20012;-90
2022/05/10 03:42:49;;;;;;;4.30;1.25;;;15.00;99.90;;;;;;5081674;28;19908;-90
2022/05/10 03:45:18;;;;;;;6.25;1.40;;;15.00;99.90;;;;;;5082725;28;20043;-91
2022/05/10 03:47:45;;;;;;;2.85;1.30;;;15.10;99.90;;;;;;5090348;28;20481;-89
2022/05/10 03:50:12;;;;;;;4.07;1.23;;;15.10;99.90;;;;;;5090184;28;20361;-89
2022/05/10 03:52:40;;;;;;;6.00;1.73;;;15.10;99.90;;;;;;5093042;28;20051;-89
2022/05/10 03:55:08;;;;;;;4.80;1.30;;;15.20;99.90;;;;;;5091110;28;20115;-89
2022/05/10 03:57:34;;;;;;;4.93;1.25;;;15.20;99.90;;;;;;5088635;28;20024;-89
2022/05/10 03:59:59;;;;;;;;;;;15.20;99.90;;;;;;5092397;28;20027;-90
2022/05/10 04:02:25;;;;;;;4.28;1.30;;;15.20;99.90;;;;;;5094162;28;19930;-90
2022/05/10 04:04:51;;;;;;;5.40;1.33;;;15.30;99.90;;;;;;5093587;28;20028;-90
2022/05/10 04:07:17;;;;;;;2.97;1.58;;;15.30;99.90;;;;;;5092973;28;20027;-89
2022/05/10 04:09:45;;;;;;;3.67;1.65;;;15.40;99.90;;;;;;5108027;28;20062;-89
2022/05/10 04:12:12;;;;;;;3.17;1.30;;;15.40;99.90;;;;;;5110250;28;20036;-89
2022/05/10 04:14:38;;;;;;;3.58;1.52;;;15.50;99.90;;;;;;5095558;28;20052;-91
2022/05/10 04:17:04;;;;;;;;;;;15.50;99.90;;;;;;5093261;28;20063;-90
2022/05/10 04:19:30;;;;;;;6.63;1.98;;;15.50;99.90;;;;;;5093023;28;19904;-91
2022/05/10 04:21:55;;;;;;;;;;;15.50;99.90;;;;;;5097048;28;20032;-90
2022/05/10 04:24:21;;;;;;;11.02;2.80;;;15.50;99.90;;;;;;5108533;28;20040;-90
2022/05/10 04:26:48;;;;;;;5.72;2.30;;;15.50;99.90;;;;;;5110052;28;20024;-91
2022/05/10 04:29:14;;;;;;;6.85;2.20;;;15.50;99.90;;;;;;5081995;28;20036;-91
2022/05/10 04:31:40;;;;;;;;;;;15.40;99.90;;;;;;5094473;28;20075;-91
2022/05/10 04:34:05;;;;;;;8.88;2.55;;;15.40;99.90;;;;;;5092913;28;19904;-89
2022/05/10 04:36:31;;;;;;;6.72;2.45;;;15.40;99.90;;;;;;5092770;28;20884;-91
2022/05/10 04:38:57;;;;;;;8.63;2.75;;;15.30;99.90;;;;;;5092560;28;20020;-91
2022/05/10 04:41:26;;;;;;;7.00;2.05;;;15.30;99.90;;;;;;5092643;28;20028;-90
2022/05/10 04:44:01;;;;;;;9.75;2.20;;;15.20;99.90;;;;;;5093309;28;20024;-90
2022/05/10 04:46:30;;;;;;;16.75;3.20;;;15.30;99.90;;;;;;5093764;28;20111;-89
2022/05/10 04:48:56;;;;;;;5.45;2.40;;;15.40;99.90;;;;;;5099343;28;20130;-94
2022/05/10 04:51:22;;;;;;;10.30;2.83;;;15.30;99.90;;;;;;5100887;28;20032;-91
2022/05/10 04:53:48;;;;;;;7.10;1.80;;;15.30;99.90;;;;;;5104267;28;20020;-91
2022/05/10 04:56:13;;;;;;;;;;;15.30;99.90;;;;;;5094271;28;20055;-91
2022/05/10 04:58:39;;;;;;;7.60;2.40;;;15.40;99.90;;;;;;5089918;28;19908;-91
2022/05/10 05:01:08;;;;;;;4.00;2.10;;;15.40;99.90;;;;;;5069506;28;20509;-92
2022/05/10 05:03:34;;;;;;;5.65;2.05;;;15.50;99.90;;;;;;5076556;28;20079;-91
2022/05/10 05:06:01;;;;;;;14.27;2.85;;;15.60;99.90;;;;;;5073392;28;20126;-92
2022/05/10 05:08:27;;;;;;;13.02;2.60;;;15.80;99.90;;;;;;5071655;28;20071;-91
2022/05/10 05:10:57;;;;;;;11.95;2.08;;;16.00;99.90;;;;;;5068724;28;20218;-91
2022/05/10 05:13:24;;;;;;;5.45;1.75;;;16.10;99.90;;;;;;5078558;28;20021;-91
2022/05/10 05:15:50;;;;;;;14.90;8.35;;;16.20;99.90;;;;;;5087630;28;20274;-92
2022/05/10 05:18:16;;;;;;;12.40;3.13;;;16.20;99.90;;;;;;5089642;28;20561;-91
2022/05/10 05:20:43;;;;;;;9.50;2.60;;;16.30;99.90;;;;;;5089237;28;20549;-91
2022/05/10 05:23:10;;;;;;;17.10;2.63;;;16.40;99.90;;;;;;5089848;28;20107;-91
2022/05/10 05:25:37;;;;;;;10.35;3.03;;;16.60;99.90;;;;;;5088051;28;20031;-91
2022/05/10 05:28:03;;;;;;;10.73;1.88;;;17.00;99.90;;;;;;5088157;28;20452;-91
2022/05/10 05:30:29;;;;;;;7.53;2.42;;;17.40;99.90;;;;;;5086064;28;20020;-91
2022/05/10 05:32:55;;;;;;;7.47;2.03;;;17.70;99.90;;;;;;5088362;28;20795;-91
2022/05/10 05:35:20;;;;;;;5.07;1.80;;;18.00;99.90;;;;;;5087867;28;20485;-90
2022/05/10 05:37:46;;;;;;;4.65;2.00;;;18.00;98.70;;;;;;5088610;28;20024;-90
2022/05/10 05:40:14;;;;;;;3.38;1.58;;;18.10;99.10;;;;;;5088170;28;20024;-90
2022/05/10 05:42:41;;;;;;;5.03;1.77;;;18.40;96.60;;;;;;5097669;28;20035;-91
2022/05/10 05:45:09;;;;;;;6.32;2.13;;;18.50;95.70;;;;;;5107550;28;20004;-90
2022/05/10 05:47:35;;;;;;;6.82;1.80;;;18.50;95.90;;;;;;5098569;28;20123;-91
2022/05/10 05:50:01;;;;;;;5.05;2.17;;;18.70;97.40;;;;;;5091482;28;20027;-92
2022/05/10 05:52:27;;;;;;;3.47;1.40;;;18.70;96.50;;;;;;5089286;28;20046;-89
2022/05/10 05:54:53;;;;;;;9.25;2.38;;;18.70;95.90;;;;;;5090831;28;20035;-89
2022/05/10 05:57:22;;;;;;;4.18;1.92;;;18.80;96.20;;;;;;5098968;28;20114;-87
2022/05/10 05:59:48;;;;;;;6.68;1.42;;;18.80;96.00;;;;;;5089915;28;20020;-88
2022/05/10 06:02:17;;;;;;;5.22;1.70;;;18.90;95.60;;;;;;5093934;27;20024;-90
2022/05/10 06:04:44;;;;;;;7.15;2.22;;;18.90;96.50;;;;;;5117064;27;20042;-89
2022/05/10 06:07:10;;;;;;;9.55;1.70;;;19.00;96.00;;;;;;5114196;27;20019;-87
2022/05/10 06:09:37;;;;;;;7.32;2.70;;;19.10;95.80;;;;;;5113064;27;20517;-92
2022/05/10 06:12:04;;;;;;;4.82;2.33;;;19.10;97.00;;;;;;5116133;27;20106;-92
2022/05/10 06:14:30;;;;;;;5.22;2.80;;;19.20;96.90;;;;;;5119560;27;20072;-89
2022/05/10 06:16:57;;;;;;;7.93;2.80;;;19.20;96.40;;;;;;5092651;28;20404;-89
2022/05/10 06:19:23;;;;;;;11.63;3.35;;;19.20;95.80;;;;;;5091552;28;20024;-91
2022/05/10 06:21:50;;;;;;;7.97;2.95;;;19.20;95.20;;;;;;5089912;28;20024;-87
2022/05/10 06:24:15;;;;;;;13.18;4.35;;;19.60;95.00;;;;;;5103923;27;20030;-91
2022/05/10 06:26:41;;;;;;;9.88;3.38;;;20.30;92.90;;;;;;5103695;28;20024;-89
2022/05/10 06:29:07;;;;;;;11.15;3.03;;;20.90;90.20;;;;;;5091679;28;20083;-91
2022/05/10 06:31:32;;;;;;;10.95;2.95;;;21.90;79.70;;;;;;5108682;28;20046;-91
2022/05/10 06:33:58;;;;;;;12.68;3.17;;;22.90;70.30;;;;;;5091533;28;20053;-92
2022/05/10 06:36:24;;;;;;;7.85;2.33;;;23.20;63.60;;;;;;5111161;28;20114;-92
2022/05/10 06:38:50;;;;;;;9.68;2.67;;;22.90;62.10;;;;;;5104819;27;20447;-93
2022/05/10 06:41:16;;;;;;;12.10;2.33;;;22.40;63.00;;;;;;5115602;27;20027;-91
2022/05/10 06:43:41;;;;;;;6.93;2.58;;;22.00;65.00;;;;;;5110965;27;20034;-91
2022/05/10 06:46:20;;;;;;;9.90;1.92;;;21.50;68.00;;;;;;5111084;27;20122;-90
2022/05/10 06:48:47;;;;;;;5.65;2.33;;;21.30;69.30;;;;;;5111754;27;20023;-90
2022/05/10 06:51:14;;;;;;;5.85;2.38;;;21.50;70.70;;;;;;5111345;27;20043;-87
2022/05/10 06:53:40;;;;;;;8.43;2.72;;;22.70;68.20;;;;;;5110904;28;20023;-87
2022/05/10 06:56:07;;;;;;;5.85;2.10;;;24.20;63.50;;;;;;5111337;27;20118;-89
2022/05/10 06:58:33;;;;;;;7.72;2.50;;;25.60;57.00;;;;;;5113637;28;20019;-87
2022/05/10 07:00:59;;;;;;;4.22;1.95;;;26.70;51.50;;;;;;5113118;28;20028;-89
2022/05/10 07:03:32;;;;;;;6.95;1.83;;;26.80;47.90;;;;;;5128287;28;20042;-85
2022/05/10 07:06:05;;;;;;;6.50;1.52;;;27.10;47.90;;;;;;5107606;28;20100;-82
2022/05/10 07:08:31;;;;;;;4.43;2.08;;;27.40;45.80;;;;;;5111559;28;20096;-83
2022/05/10 07:10:56;;;;;;;5.93;1.92;;;27.40;45.60;;;;;;5096970;28;20484;-82
2022/05/10 07:13:25;;;;;;;4.65;1.77;;;26.80;45.80;;;;;;5109366;28;20031;-83
2022/05/10 07:15:51;;;;;;;10.10;1.50;;;26.10;46.70;;;;;;5110054;28;20028;-83
2022/05/10 07:18:17;;;;;;;4.47;1.63;;;25.50;46.80;;;;;;5091183;28;20123;-83
2022/05/10 07:20:45;;;;;;;5.93;2.30;;;25.70;46.80;;;;;;5123920;28;20046;-83
2022/05/10 07:23:11;;;;;;;5.85;1.55;;;26.10;46.20;;;;;;5112354;28;20095;-84
2022/05/10 07:25:37;;;;;;;7.65;1.98;;;26.70;43.70;;;;;;5104718;28;20129;-84
2022/05/10 07:28:03;;;;;;;12.52;2.58;;;27.40;43.30;;;;;;5129818;28;20086;-82
2022/05/10 07:30:30;;;;;;;5.60;1.67;;;27.90;39.50;;;;;;5130336;28;20114;-85
2022/05/10 07:32:57;;;;;;;7.35;2.38;;;28.50;40.70;;;;;;5126322;27;20031;-83
2022/05/10 07:38:13;;;;;;;10.73;1.70;;;28.80;39.50;;;;;;5097759;28;20043;-86
2022/05/10 07:40:39;;;;;;;8.68;1.90;;;29.30;37.50;;;;;;5095534;27;20055;-84
2022/05/10 07:43:06;;;;;;;9.70;1.98;;;29.60;36.20;;;;;;5094243;28;20488;-84
2022/05/10 07:45:32;;;;;;;3.88;1.88;;;29.90;36.00;;;;;;5088975;28;20036;-84
2022/05/10 07:47:58;;;;;;;7.25;2.20;;;30.60;33.80;;;;;;5104168;27;20032;-82
2022/05/10 07:50:25;;;;;;;5.80;1.77;;;30.90;31.00;;;;;;5096657;28;20730;-84
2022/05/10 07:52:50;;;;;;;3.15;1.65;;;30.50;32.10;;;;;;5090810;28;20036;-84
2022/05/10 07:55:18;;;;;;;3.90;1.30;;;29.80;32.90;;;;;;5115710;27;20032;-82
2022/05/10 07:57:43;;;;;;;6.82;1.58;;;28.70;33.70;;;;;;5094264;28;20436;-81
2022/05/10 08:00:12;;;;;;;10.70;2.30;;;27.80;33.90;;;;;;5102459;28;20027;-82
2022/05/10 08:02:43;;;;;;;6.43;1.60;;;27.50;36.60;;;;;;5100348;28;20055;-82
2022/05/10 08:05:18;;;;;;;2.97;1.52;;;27.80;36.00;;;;;;5099677;28;20040;-82
2022/05/10 08:07:43;;;;;;;3.35;1.80;;;28.30;35.60;;;;;;5097116;28;20071;-83
2022/05/10 08:10:10;;;;;;;4.28;1.85;;;29.20;35.40;;;;;;5104383;28;20488;-84
2022/05/10 08:12:36;;;;;;;4.32;1.50;;;29.70;32.80;;;;;;5096766;28;20084;-81
2022/05/10 08:15:02;;;;;;;5.15;1.55;;;30.00;32.50;;;;;;5094992;28;20417;-81
2022/05/10 08:17:28;;;;;;;3.45;1.25;;;30.00;30.70;;;;;;5104150;28;20206;-81
2022/05/10 08:19:54;;;;;;;6.30;1.40;;;30.10;32.00;;;;;;5104327;28;20532;-82
2022/05/10 08:22:19;;;;;;;15.13;1.63;;;30.20;31.50;;;;;;5096829;28;20044;-82
2022/05/10 08:24:45;;;;;;;3.40;1.95;;;30.40;30.60;;;;;;5098947;28;20032;-82
2022/05/10 08:27:11;;;;;;;5.90;1.83;;;30.70;30.30;;;;;;5112208;27;20038;-83
2022/05/10 08:29:37;;;;;;;4.00;1.65;;;31.00;30.00;;;;;;5093991;28;20119;-83
2022/05/10 08:32:03;;;;;;;5.25;1.92;;;31.00;30.00;;;;;;5102063;27;20029;-82
2022/05/10 08:34:29;;;;;;;6.65;1.40;;;31.10;31.20;;;;;;5099484;28;20036;-83
2022/05/10 08:36:56;;;;;;;9.13;1.60;;;31.50;29.00;;;;;;5096533;28;20401;-83
2022/05/10 08:39:22;;;;;;;8.10;1.95;;;31.30;29.20;;;;;;5100460;28;20024;-82
2022/05/10 08:41:55;;;;;;;5.25;1.85;;;31.60;29.60;;;;;;5095019;27;20094;-82
2022/05/10 08:44:27;;;;;;;4.88;2.10;;;31.80;29.30;;;;;;5096699;28;20039;-82
2022/05/10 08:46:57;;;;;;;4.40;1.55;;;32.20;28.70;;;;;;5092632;28;20039;-83
2022/05/10 08:49:35;;;;;;;3.50;1.48;;;32.60;28.60;;;;;;5096737;27;20032;-82
2022/05/10 08:52:03;;;;;;;5.82;1.50;;;32.80;28.10;;;;;;5099327;28;20088;-81
2022/05/10 08:54:30;;;;;;;4.90;1.63;;;32.70;27.60;;;;;;5095984;28;20032;-83
2022/05/10 08:57:24;;;;;;;5.25;1.77;;;32.60;27.90;;;;;;5090099;28;20032;-85
2022/05/10 09:00:02;;;;;;;4.10;1.27;;;32.70;27.30;;;;;;5070397;28;20049;-85
2022/05/10 09:02:42;;;;;;;3.72;2.30;;;32.80;27.40;;;;;;5104623;27;20870;-85
2022/05/10 09:05:08;;;;;;;9.18;1.63;;;32.80;27.50;;;;;;5095548;28;20032;-83
2022/05/10 09:07:52;;;;;;;5.40;1.75;;;33.10;27.20;;;;;;5088072;28;20149;-85
2022/05/10 09:10:24;;;;;;;5.93;1.50;;;33.40;27.00;;;;;;5104703;27;20443;-83
2022/05/10 09:12:58;;;;;;;7.65;1.40;;;32.70;25.80;;;;;;5104596;27;20036;-83
2022/05/10 09:15:27;;;;;;;8.07;1.88;;;31.70;27.30;;;;;;5097880;28;20093;-82
2022/05/10 09:17:53;;;;;;;8.57;1.85;;;30.90;28.40;;;;;;5094770;28;20036;-82
2022/05/10 09:20:18;;;;;;;5.90;1.20;;;30.60;28.40;;;;;;5101806;28;20073;-83
2022/05/10 09:22:50;;;;;;;4.13;1.30;;;30.00;28.80;;;;;;5101261;28;20032;-83
2022/05/10 09:25:38;;;;;;;4.95;1.20;;;29.30;29.30;;;;;;5103120;28;20035;-82
2022/05/10 09:28:27;;;;;;;4.32;1.40;;;28.70;29.80;;;;;;5102011;28;20051;-82
2022/05/10 09:36:31;;;;;;;4.45;1.27;;;28.70;29.40;;;;;;5092974;28;20039;-81
2022/05/10 09:39:13;;;;;;;5.45;1.80;;;28.20;30.00;;;;;;5093256;28;20039;-82
2022/05/10 09:41:46;;;;;;;5.38;1.38;;;27.70;31.50;;;;;;5091452;28;20071;-83
2022/05/10 09:44:27;;;;;;;6.55;1.33;;;27.40;32.70;;;;;;5089909;28;20118;-83
2022/05/10 09:47:11;;;;;;;5.30;1.27;;;27.10;33.30;;;;;;5093810;27;20516;-82
2022/05/10 09:49:38;;;;;;;3.78;1.85;;;26.80;34.30;;;;;;5099440;28;20533;-82
2022/05/10 09:52:06;;;;;;;4.47;1.77;;;26.40;34.50;;;;;;5092031;28;20448;-83
2022/05/10 09:54:40;;;;;;;5.00;1.52;;;26.40;33.80;;;;;;5110438;27;20066;-83
2022/05/10 09:57:10;;;;;;;2.72;1.50;;;26.30;34.40;;;;;;5086770;28;20033;-83
2022/05/10 09:59:46;;;;;;;7.10;1.90;;;26.20;35.70;;;;;;5085992;28;20052;-81
2022/05/10 10:02:35;;;;;;;3.83;1.73;;;26.80;35.80;;;;;;5093235;27;20034;-83
2022/05/10 10:05:25;;;;;;;6.45;1.45;;;27.80;34.20;;;;;;5111988;27;20036;-83
2022/05/10 10:07:53;;;;;;;3.58;1.50;;;28.50;33.50;;;;;;5113341;27;20122;-83
2022/05/10 10:10:34;;;;;;;3.13;1.40;;;28.80;33.10;;;;;;5112001;27;20050;-82
2022/05/10 10:13:27;;;;;;;3.83;1.63;;;28.80;31.60;;;;;;5116964;27;20019;-84
2022/05/10 10:15:53;;;;;;;7.18;1.63;;;28.70;31.80;;;;;;5109862;28;20055;-83
2022/05/10 10:18:44;;;;;;;6.35;1.48;;;28.60;32.40;;;;;;5109971;27;20080;-83
2022/05/10 10:21:42;;;;;;;4.97;1.38;;;28.60;31.70;;;;;;5122543;27;20023;-82
2022/05/10 10:24:09;;;;;;;4.25;1.75;;;28.60;31.90;;;;;;5107494;27;20031;-83
2022/05/10 10:26:44;;;;;;;5.93;1.92;;;28.70;31.30;;;;;;5129694;27;20106;-83
2022/05/10 10:29:41;;;;;;;8.38;1.70;;;28.80;31.30;;;;;;5111211;27;20075;-84
2022/05/10 10:32:33;;;;;;;;;;;28.90;31.10;;;;;;5101832;27;20079;-83
2022/05/10 10:35:39;;;;;;;2.60;1.23;;;28.80;31.20;;;;;;5124672;27;19908;-83
2022/05/10 10:38:26;;;;;;;2.97;1.33;;;28.50;30.00;;;;;;5129184;27;20028;-84
2022/05/10 10:41:04;;;;;;;3.38;1.50;;;28.30;30.90;;;;;;5128134;27;20019;-84
2022/05/10 10:43:42;;;;;;;4.45;1.23;;;28.30;31.90;;;;;;5110465;27;20034;-83
2022/05/10 10:46:31;;;;;;;3.10;1.10;;;28.40;31.80;;;;;;5111772;27;20084;-84
2022/05/10 10:49:24;;;;;;;3.88;1.05;;;28.40;31.00;;;;;;5129702;27;20103;-82
2022/05/10 10:51:50;;;;;;;2.65;1.08;;;28.30;32.00;;;;;;5129622;27;20039;-84
2022/05/10 10:54:20;;;;;;;4.30;1.30;;;28.20;31.50;;;;;;5129149;27;20043;-83
2022/05/10 10:56:51;;;;;;;4.97;1.52;;;28.20;30.10;;;;;;5110463;28;20555;-83
2022/05/10 10:59:20;;;;;;;3.92;1.60;;;28.20;30.30;;;;;;5111209;27;20024;-85
2022/05/10 11:02:45;;;;;;;3.45;1.00;;;28.10;31.30;;;;;;5111419;28;20019;-84
2022/05/10 11:05:51;;;;;;;3.33;1.23;;;28.00;30.50;;;;;;5025553;28;20087;-83
2022/05/10 11:08:44;;;;;;;2.45;1.27;;;27.90;31.80;;;;;;5131331;27;20011;-83
2022/05/10 11:11:28;;;;;;;5.43;1.55;;;27.80;31.50;;;;;;5114636;27;20099;-85
2022/05/10 11:14:13;;;;;;;2.67;1.30;;;27.70;30.90;;;;;;5115517;27;20038;-84
2022/05/10 11:17:07;;;;;;;4.47;0.93;;;27.60;31.50;;;;;;5115915;27;20105;-84
2022/05/10 11:20:04;;;;;;;6.50;1.10;;;27.40;30.40;;;;;;5132599;27;20027;-83
2022/05/10 11:22:39;;;;;;;3.97;1.13;;;26.90;30.90;;;;;;5115802;27;20034;-84
2022/05/10 11:25:10;;;;;;;4.82;1.05;;;26.70;31.60;;;;;;5116468;27;20034;-83
2022/05/10 11:28:07;;;;;;;3.47;1.55;;;26.70;32.20;;;;;;5115385;27;20027;-82
2022/05/10 11:30:57;;;;;;;2.90;1.23;;;26.90;32.40;;;;;;5115067;27;20100;-84
2022/05/10 11:33:34;;;;;;;5.50;1.00;;;27.10;32.10;;;;;;5114717;27;20042;-83
2022/05/10 11:36:36;;;;;;;7.53;1.05;;;27.10;31.00;;;;;;5114422;27;20087;-83
2022/05/10 11:39:36;;;;;;;3.78;0.88;;;27.10;30.80;;;;;;5132999;27;20479;-83
2022/05/10 11:42:17;;;;;;;3.17;1.20;;;26.90;30.70;;;;;;5100787;27;20027;-83
2022/05/10 11:44:57;;;;;;;1.95;1.08;;;27.00;30.70;;;;;;5132905;27;20034;-83
2022/05/10 11:47:44;;;;;;;9.18;2.17;;;26.90;30.30;;;;;;5113690;27;20015;-83
2022/05/10 11:51:38;;;;;;;10.50;1.25;;;26.80;31.50;;;;;;5132822;27;20028;-83
2022/05/10 11:53:56;;;;;;;3.95;1.35;;;26.10;33.40;;;;;;5105534;27;20049;-83
2022/05/10 11:56:26;;;;;;;6.03;1.52;;;25.80;33.80;;;;;;5114135;27;20545;-83
2022/05/10 11:58:55;;;;;;;5.70;1.52;;;25.50;34.00;;;;;;5113988;27;20030;-82
2022/05/10 12:02:00;;;;;;;12.68;1.58;;;25.30;34.20;;;;;;5132146;27;20015;-84
2022/05/10 12:04:45;;;;;;;3.97;1.25;;;25.00;34.30;;;;;;5012642;28;20124;-82
2022/05/10 12:07:19;;;;;;;6.20;1.42;;;24.80;35.20;;;;;;5012002;28;20037;-82
2022/05/10 12:09:51;;;;;;;2.75;1.40;;;24.90;36.30;;;;;;5078945;27;20034;-82
2022/05/10 12:12:32;;;;;;;5.15;1.35;;;25.00;35.90;;;;;;5113689;27;20035;-83
2022/05/10 12:21:19;;;;;;;;;;;24.90;34.80;;;;;;5132330;27;20072;-82
2022/05/10 12:24:19;;;;;;;4.10;1.20;;;25.00;34.80;;;;;;5114194;27;19915;-82
2022/05/10 12:26:47;;;;;;;3.42;1.52;;;25.30;32.70;;;;;;5113534;27;20180;-81
2022/05/10 12:29:35;;;;;;;5.45;1.35;;;25.50;33.70;;;;;;5113261;27;20114;-82
2022/05/10 12:32:20;;;;;;;6.25;0.98;;;25.40;31.30;;;;;;5113484;27;20062;-82
2022/05/10 12:34:54;;;;;;;2.65;1.30;;;25.10;33.10;;;;;;5132075;27;20023;-82
2022/05/10 12:37:22;;;;;;;5.05;1.40;;;25.00;32.70;;;;;;5113254;27;20033;-83
2022/05/10 12:40:12;;;;;;;2.90;1.17;;;24.80;33.30;;;;;;5112841;27;20030;-79
2022/05/10 12:43:02;;;;;;;6.95;1.27;;;24.60;34.40;;;;;;5066586;27;20054;-84
2022/05/10 12:45:56;;;;;;;3.05;1.25;;;24.50;34.90;;;;;;5113489;27;20034;-86
2022/05/10 12:48:40;;;;;;;5.25;1.10;;;24.50;35.30;;;;;;5112912;27;20103;-85
2022/05/10 12:51:36;;;;;;;3.58;1.23;;;24.30;33.80;;;;;;5113296;27;20067;-83
2022/05/10 12:54:09;;;;;;;2.22;0.95;;;24.30;34.30;;;;;;5113124;27;20050;-83
2022/05/10 12:56:40;;;;;;;4.18;1.50;;;24.40;34.10;;;;;;5112914;27;20495;-82
2022/05/10 12:59:18;;;;;;;3.80;1.10;;;24.60;34.10;;;;;;5113126;27;20114;-83
2022/05/10 13:01:45;;;;;;;2.70;1.15;;;24.80;34.30;;;;;;5114258;27;20027;-82
2022/05/10 13:04:15;;;;;;;3.05;0.93;;;25.00;34.10;;;;;;5113024;27;20043;-83
2022/05/10 13:06:59;;;;;;;4.32;1.15;;;25.30;33.50;;;;;;5131906;27;20030;-82
2022/05/10 13:09:40;;;;;;;6.72;1.48;;;25.60;31.60;;;;;;5130689;27;20054;-83
2022/05/10 13:12:21;;;;;;;5.65;1.30;;;25.70;31.10;;;;;;5113513;27;20048;-83
2022/05/10 13:14:50;;;;;;;5.55;1.00;;;25.80;31.60;;;;;;5126448;27;20034;-82
2022/05/10 13:17:40;;;;;;;2.42;1.08;;;26.10;31.50;;;;;;5131206;27;20027;-82
2022/05/10 13:20:10;;;;;;;4.82;1.50;;;26.40;31.10;;;;;;5112511;27;20031;-83
2022/05/10 13:22:37;;;;;;;5.75;0.90;;;26.50;30.10;;;;;;5112518;27;20093;-82
2022/05/10 13:25:06;;;;;;;1.55;0.90;;;26.60;30.10;;;;;;5129321;27;20495;-81
2022/05/10 13:27:37;;;;;;;4.78;1.13;;;26.70;29.80;;;;;;5112891;27;20048;-83
2022/05/10 13:30:08;;;;;;;12.02;1.80;;;26.80;29.30;;;;;;5130949;27;20031;-83
2022/05/10 13:32:40;;;;;;;5.07;1.13;;;26.90;28.40;;;;;;5112500;27;20039;-83
2022/05/10 13:35:21;;;;;;;3.28;1.17;;;26.60;28.40;;;;;;5112706;27;20435;-82
2022/05/10 13:37:57;;;;;;;4.15;1.63;;;26.20;28.80;;;;;;5131534;27;20027;-83